Latest Coastal Weather Observations for Cape Ferguson

IDQ60701

Issued at 11:51 pm EST Saturday 25 May 2019 (issued every 10 minutes, with the page automatically refreshed every 10 minutes)

About coastal observations | Map of coastal stations | Coastal observations for QLD | Marine services | Other Formats
Station Details ID: 032182 Name: CAPE FERGUSON NTC AWS Lat: -19.28 Lon: 147.06 Height: 0.0 m
Data from the previous 72 hours. | See also: Recent months for locations in Queensland
Date/Time
EST
Wind Sea
Height
m
Swell Vis
km
Cloud Weather Temp
°C
Press
hPa
Rain since
9am
mm
Dir  Spd
kts
Gust
kts
Height
m
Period
s
Dir
25/11:30pm SSE 10 12 - - - - - - - 22.9 1017.2 -
25/11:00pm SE 10 12 - - - - - - - 23.0 1017.3 -
25/10:30pm SE 9 11 - - - - - - - 23.0 1017.5 -
25/10:00pm SE 10 13 - - - - - - - 23.4 1017.6 -
25/09:30pm ESE 11 14 - - - - - - - 23.9 1017.8 -
25/09:00pm ESE 12 15 - - - - - - - 24.0 1017.7 -
25/08:30pm E 16 20 - - - - - - - 24.0 1017.7 -
25/08:00pm E 15 17 - - - - - - - 24.1 1017.5 -
25/07:30pm E 15 17 - - - - - - - 24.1 1017.3 -
25/07:00pm E 12 14 - - - - - - - 24.1 1017.0 -
25/06:30pm E 10 13 - - - - - - - 24.2 1016.7 -
25/06:00pm E 10 12 - - - - - - - 24.1 1016.5 -
25/05:30pm ESE 10 12 - - - - - - - 24.1 1016.1 -
25/05:00pm E 11 13 - - - - - - - 24.0 1015.6 -
25/04:30pm ESE 11 13 - - - - - - - 23.9 1015.4 -
25/04:00pm ESE 9 11 - - - - - - - 23.5 1015.2 -
25/03:30pm ESE 8 10 - - - - - - - 23.7 1014.9 -
25/03:00pm E 13 17 - - - - - - - 22.9 1015.2 -
25/02:30pm E 8 11 - - - - - - - 23.4 1015.1 -
25/02:00pm E 12 15 - - - - - - - 23.1 1015.9 -
25/01:30pm E 4 7 - - - - - - - 23.3 1015.9 -
25/01:00pm NE 1 3 - - - - - - - 22.9 1016.3 -
25/12:30pm ENE 6 8 - - - - - - - 21.4 1016.9 -
25/12:00pm ENE 10 15 - - - - - - - 21.2 1017.4 -
25/11:30am E 17 21 - - - - - - - 21.9 1018.2 -
25/11:00am ESE 8 11 - - - - - - - 23.6 1018.0 -
25/10:30am ESE 9 11 - - - - - - - 23.4 1018.3 -
25/10:00am SE 9 12 - - - - - - - 23.1 1018.6 -
25/09:30am SE 10 13 - - - - - - - 23.0 1018.7 -
25/09:00am SE 10 12 - - - - - - - 22.5 1018.7 -
25/08:30am SE 11 13 - - - - - - - 22.2 1018.5 -
25/08:00am SSE 10 12 - - - - - - - 21.9 1018.1 -
25/07:30am SE 8 10 - - - - - - - 21.8 1018.0 -
25/07:00am SE 12 16 - - - - - - - 21.9 1018.0 -
25/06:30am SSE 10 13 - - - - - - - 21.8 1017.8 -
25/06:00am WSW 3 5 - - - - - - - 21.4 1017.4 -
25/05:30am SSW 7 9 - - - - - - - 21.3 1016.9 -
25/05:00am SSE 9 12 - - - - - - - 21.6 1016.9 -
25/04:30am SE 8 12 - - - - - - - 21.2 1017.2 -
25/04:00am SE 9 11 - - - - - - - 22.1 1017.2 -
25/03:30am SE 6 7 - - - - - - - 22.0 1016.8 -
25/03:00am SSE 9 11 - - - - - - - 21.6 1017.0 -
25/02:30am SSE 9 11 - - - - - - - 22.3 1017.2 -
25/02:00am SSE 8 10 - - - - - - - 22.7 1017.5 -
25/01:30am SE 10 12 - - - - - - - 22.7 1018.0 -
25/01:00am SSE 9 11 - - - - - - - 22.6 1018.1 -
25/12:30am SE 8 11 - - - - - - - 22.8 1018.5 -
25/12:00am SSE 6 8 - - - - - - - 22.7 1018.4 -
 
Date/Time
EST
Wind Sea
Height
m
Swell Vis
km
Cloud Weather Temp
°C
Press
hPa
Rain since
9am
mm
Dir  Spd
kts
Gust
kts
Height
m
Period
s
Dir
24/11:30pm SSE 6 7 - - - - - - - 22.6 1018.3 -
24/11:00pm SE 7 8 - - - - - - - 22.9 1018.5 -
24/10:30pm SE 11 14 - - - - - - - 22.3 1019.1 -
24/10:00pm SE 10 13 - - - - - - - 23.0 1019.2 -
24/09:30pm SE 11 15 - - - - - - - 23.2 1019.1 -
24/09:00pm ESE 16 19 - - - - - - - 23.5 1019.1 -
24/08:30pm ESE 16 19 - - - - - - - 23.4 1018.8 -
24/08:00pm ESE 15 19 - - - - - - - 23.5 1018.9 -
24/07:30pm ESE 14 17 - - - - - - - 23.4 1018.8 -
24/07:00pm ESE 16 19 - - - - - - - 23.2 1018.7 -
24/06:30pm ESE 17 21 - - - - - - - 23.9 1018.2 -
24/06:00pm ESE 14 18 - - - - - - - 24.1 1017.7 -
24/05:30pm E 15 18 - - - - - - - 24.1 1017.2 -
24/05:00pm E 15 19 - - - - - - - 24.1 1016.9 -
24/04:30pm E 16 19 - - - - - - - 24.0 1016.7 -
24/04:00pm E 16 18 - - - - - - - 24.1 1016.6 -
24/03:30pm E 14 17 - - - - - - - 24.0 1016.2 -
24/03:00pm E 16 19 - - - - - - - 23.8 1016.4 -
24/02:30pm E 15 20 - - - - - - - 23.9 1016.5 -
24/02:00pm E 16 20 - - - - - - - 23.9 1016.8 -
24/01:30pm E 15 18 - - - - - - - 23.9 1017.1 -
24/01:00pm E 16 19 - - - - - - - 24.0 1017.8 -
24/12:30pm E 15 18 - - - - - - - 23.7 1018.1 -
24/12:00pm ESE 12 17 - - - - - - - 24.0 1018.4 -
24/11:30am SE 11 13 - - - - - - - 23.7 1018.7 -
24/11:00am SE 9 11 - - - - - - - 23.2 1019.1 -
24/10:30am SE 10 12 - - - - - - - 22.7 1019.5 -
24/10:00am SSE 9 12 - - - - - - - 22.6 1019.5 -
24/09:30am SSE 10 13 - - - - - - - 22.3 1019.5 -
24/09:00am SSE 9 12 - - - - - - - 22.1 1019.5 -
24/08:30am SSE 10 13 - - - - - - - 22.0 1019.5 -
24/08:00am SSE 11 15 - - - - - - - 21.9 1019.5 -
24/07:30am SSE 11 14 - - - - - - - 21.6 1019.1 -
24/07:00am SSE 11 14 - - - - - - - 21.4 1018.8 -
24/06:30am SSE 12 14 - - - - - - - 21.3 1018.6 -
24/06:00am SSE 13 16 - - - - - - - 21.4 1018.2 -
24/05:30am SSE 11 14 - - - - - - - 21.5 1018.1 -
24/05:00am SSE 11 13 - - - - - - - 21.5 1017.9 -
24/04:30am SSE 11 13 - - - - - - - 21.6 1017.7 -
24/04:00am SSE 12 15 - - - - - - - 21.6 1017.7 -
24/03:30am SSE 11 14 - - - - - - - 21.5 1017.8 -
24/03:00am SSE 11 15 - - - - - - - 21.6 1018.0 -
24/02:30am SSE 11 13 - - - - - - - 21.6 1018.2 -
24/02:00am SSE 10 13 - - - - - - - 21.8 1018.5 -
24/01:30am SSE 10 12 - - - - - - - 21.9 1018.7 -
24/01:00am SSE 10 13 - - - - - - - 22.1 1018.9 -
24/12:30am SSE 10 12 - - - - - - - 22.4 1019.1 -
24/12:00am SSE 11 13 - - - - - - - 22.3 1019.4 -
 
Date/Time
EST
Wind Sea
Height
m
Swell Vis
km
Cloud Weather Temp
°C
Press
hPa
Rain since
9am
mm
Dir  Spd
kts
Gust
kts
Height
m
Period
s
Dir
23/11:30pm SE 10 12 - - - - - - - 22.6 1019.7 -
23/11:00pm SE 11 13 - - - - - - - 22.6 1019.8 -
23/10:30pm SSE 10 11 - - - - - - - 22.8 1019.9 -
23/10:00pm SE 9 11 - - - - - - - 23.2 1020.0 -
23/09:30pm SE 9 11 - - - - - - - 23.4 1020.1 -
23/09:00pm SE 11 13 - - - - - - - 23.7 1020.0 -
23/08:30pm ESE 13 16 - - - - - - - 23.9 1020.0 -
23/08:00pm ESE 14 18 - - - - - - - 23.9 1020.0 -
23/07:30pm ESE 14 19 - - - - - - - 24.1 1019.7 -
23/07:00pm E 15 19 - - - - - - - 24.0 1019.4 -
23/06:30pm E 16 19 - - - - - - - 24.1 1019.2 -
23/06:00pm E 15 19 - - - - - - - 24.1 1018.7 -
23/05:30pm E 16 19 - - - - - - - 24.1 1018.8 -
23/05:00pm E 15 17 - - - - - - - 24.1 1018.7 -
23/04:30pm E 14 18 - - - - - - - 24.1 1018.6 -
23/04:00pm E 14 17 - - - - - - - 24.1 1018.3 -
23/03:30pm E 16 19 - - - - - - - 24.0 1018.3 -
23/03:00pm E 16 20 - - - - - - - 24.1 1018.2 -
23/02:30pm E 15 17 - - - - - - - 24.2 1018.5 -
23/02:00pm E 16 20 - - - - - - - 24.1 1018.9 -
23/01:30pm ESE 14 18 - - - - - - - 24.2 1018.9 -
23/01:00pm ESE 13 16 - - - - - - - 24.4 1019.2 -
23/12:30pm E 14 17 - - - - - - - 24.3 1019.8 -
23/12:00pm ESE 10 14 - - - - - - - 24.3 1020.0 -
23/11:30am SE 11 13 - - - - - - - 24.1 1020.4 -
23/11:00am SE 12 13 - - - - - - - 23.8 1020.7 -
23/10:30am SE 11 14 - - - - - - - 23.7 1021.1 -
23/10:00am SE 12 14 - - - - - - - 23.4 1021.4 -
23/09:30am SE 12 16 - - - - - - - 22.9 1021.4 -
23/09:00am SE 14 19 - - - - - - - 22.8 1021.2 -
23/08:30am SSE 15 19 - - - - - - - 22.5 1020.9 -
23/08:00am SSE 14 17 - - - - - - - 22.6 1020.7 -
23/07:30am SSE 13 16 - - - - - - - 22.6 1020.3 -
23/07:00am SSE 12 15 - - - - - - - 22.6 1020.1 -
23/06:30am SSE 12 15 - - - - - - - 22.5 1019.9 -
23/06:00am SSE 13 16 - - - - - - - 22.6 1019.5 -
23/05:30am SSE 13 16 - - - - - - - 22.6 1019.2 -
23/05:00am SSE 13 16 - - - - - - - 22.6 1019.0 -
23/04:30am SSE 11 13 - - - - - - - 22.6 1019.1 -
23/04:00am SSE 11 13 - - - - - - - 22.6 1018.9 -
23/03:30am SSE 11 14 - - - - - - - 22.8 1018.9 -
23/03:00am SSE 11 14 - - - - - - - 22.6 1019.1 -
23/02:30am SSE 12 15 - - - - - - - 22.6 1019.3 -
23/02:00am SSE 11 15 - - - - - - - 22.6 1019.7 -
23/01:30am SSE 13 15 - - - - - - - 22.4 1020.0 -
23/01:00am SSE 12 15 - - - - - - - 22.4 1020.1 -
23/12:30am SSE 11 14 - - - - - - - 22.1 1020.4 -
23/12:00am SSE 11 15 - - - - - - - 21.8 1020.6 -

Other formats

Comma delimited format used in spreadsheet applications
http://www.bom.gov.au/fwo/IDQ60701/IDQ60701.94297.axf

JavaScript Object Notation format (JSON) in row-major order
http://www.bom.gov.au/fwo/IDQ60701/IDQ60701.94297.json

Data quality

Most of these data are generated automatically and are frequently updated. Quality checks on data are not normally performed. It is possible for incorrect values to appear. Refer to information at About Latest Weather Observations and please check the disclaimer before using these data.